Time;durP1;ratioP1;P1;durP2;ratioP2;P2;SDS_P1;SDS_P2;PMS_P1;PMS_P2;Temp;Humidity;BMP_temperature;BMP_pressure;BME280_temperature;BME280_humidity;BME280_pressure;Samples;Min_cycle;Max_cycle;Signal;HPM_P1;HPM_P2
2023/12/14 00:00:35;;;;;;;5.10;4.28;;;;;;;;;;5056769;28;20209;-82
2023/12/14 00:03:03;;;;;;;5.13;4.55;;;;;;;;;;5057569;28;20225;-83
2023/12/14 00:05:30;;;;;;;5.57;4.13;;;;;;;;;;5056751;28;20204;-83
2023/12/14 00:07:58;;;;;;;5.38;4.50;;;;;;;;;;5056535;28;20244;-82
2023/12/14 00:10:25;;;;;;;5.03;4.18;;;;;;;;;;5056386;28;20204;-83
2023/12/14 00:12:55;;;;;;;3.78;3.47;;;;;;;;;;5064251;28;20222;-82
2023/12/14 00:15:22;;;;;;;3.83;3.53;;;;;;;;;;5060634;28;20692;-83
2023/12/14 00:17:50;;;;;;;4.45;4.05;;;;;;;;;;5058558;28;20256;-81
2023/12/14 00:20:17;;;;;;;4.57;3.78;;;;;;;;;;5059095;28;20197;-82
2023/12/14 00:22:45;;;;;;;3.75;3.45;;;;;;;;;;5059293;28;20233;-84
2023/12/14 00:25:12;;;;;;;5.68;5.10;;;;;;;;;;5059944;28;20601;-82
2023/12/14 00:27:39;;;;;;;4.22;3.83;;;;;;;;;;5058502;28;20221;-82
2023/12/14 00:30:11;;;;;;;5.13;4.20;;;;;;;;;;5059367;28;20680;-83
2023/12/14 00:32:38;;;;;;;5.00;4.25;;;;;;;;;;5059757;28;20198;-83
2023/12/14 00:35:06;;;;;;;4.57;4.13;;;;;;;;;;5060236;28;20552;-83
2023/12/14 00:37:33;;;;;;;6.30;5.22;;;;;;;;;;5059531;28;20252;-83
2023/12/14 00:40:01;;;;;;;4.97;4.47;;;;;;;;;;5054155;28;20201;-83
2023/12/14 00:42:28;;;;;;;6.53;5.72;;;;;;;;;;5059479;28;20220;-83
2023/12/14 00:44:56;;;;;;;5.80;5.25;;;;;;;;;;5059243;28;20223;-83
2023/12/14 00:47:24;;;;;;;5.32;4.82;;;;;;;;;;5059315;28;20307;-82
2023/12/14 00:49:52;;;;;;;6.10;5.50;;;;;;;;;;5059657;28;20237;-82
2023/12/14 00:52:19;;;;;;;6.93;6.00;;;;;;;;;;5059835;28;20194;-82
2023/12/14 00:54:47;;;;;;;7.15;6.15;;;;;;;;;;5058364;28;20216;-83
2023/12/14 00:57:14;;;;;;;8.50;6.32;;;;;;;;;;5054988;28;20219;-83
2023/12/14 00:59:41;;;;;;;7.28;6.47;;;;;;;;;;5059121;28;20205;-81
2023/12/14 01:02:08;;;;;;;6.22;5.35;;;;;;;;;;5059676;28;20198;-83
2023/12/14 01:04:37;;;;;;;12.57;7.38;;;;;;;;;;5059687;28;20304;-83
2023/12/14 01:07:05;;;;;;;8.68;6.93;;;;;;;;;;5058956;28;20305;-83
2023/12/14 01:09:32;;;;;;;6.07;5.47;;;;;;;;;;5059791;28;20581;-83
2023/12/14 01:12:00;;;;;;;8.63;7.72;;;;;;;;;;5058901;28;20202;-82
2023/12/14 01:14:27;;;;;;;8.68;7.10;;;;;;;;;;5059219;28;20225;-83
2023/12/14 01:16:54;;;;;;;8.25;7.43;;;;;;;;;;5058633;28;20268;-82
2023/12/14 01:19:22;;;;;;;9.70;7.68;;;;;;;;;;5059063;28;20229;-82
2023/12/14 01:21:51;;;;;;;5.85;5.28;;;;;;;;;;5058748;28;20206;-81
2023/12/14 01:24:18;;;;;;;6.72;6.03;;;;;;;;;;5058703;28;20218;-81
2023/12/14 01:26:46;;;;;;;9.25;7.32;;;;;;;;;;5057447;28;20246;-83
2023/12/14 01:29:13;;;;;;;8.48;7.53;;;;;;;;;;5058649;28;20244;-83
2023/12/14 01:31:40;;;;;;;10.10;8.50;;;;;;;;;;5058927;28;20702;-82
2023/12/14 01:34:08;;;;;;;9.18;7.68;;;;;;;;;;5058711;28;20196;-82
2023/12/14 01:36:35;;;;;;;8.35;7.47;;;;;;;;;;5058023;28;20225;-83
2023/12/14 01:39:05;;;;;;;11.88;8.20;;;;;;;;;;5058194;28;20198;-82
2023/12/14 01:41:32;;;;;;;7.50;6.70;;;;;;;;;;5059420;28;20197;-83
2023/12/14 01:44:00;;;;;;;9.93;8.45;;;;;;;;;;5059065;28;20218;-84
2023/12/14 01:46:27;;;;;;;10.00;7.47;;;;;;;;;;5058146;28;20218;-82
2023/12/14 01:48:55;;;;;;;8.35;7.55;;;;;;;;;;5058106;28;20210;-82
2023/12/14 01:51:22;;;;;;;9.02;8.10;;;;;;;;;;5058118;28;20288;-81
2023/12/14 01:53:50;;;;;;;7.60;6.80;;;;;;;;;;5056858;28;20198;-82
2023/12/14 01:56:18;;;;;;;6.97;6.32;;;;;;;;;;5053924;28;20231;-82
2023/12/14 01:58:46;;;;;;;9.95;8.23;;;;;;;;;;5058132;28;20587;-82
2023/12/14 02:01:19;;;;;;;7.65;6.82;;;;;;;;;;5058799;28;20201;-83
2023/12/14 02:03:47;;;;;;;8.63;7.28;;;;;;;;;;5057792;28;20220;-81
2023/12/14 02:06:14;;;;;;;7.90;6.70;;;;;;;;;;5057611;28;20217;-82
2023/12/14 02:08:41;;;;;;;7.63;6.80;;;;;;;;;;5058604;28;20293;-83
2023/12/14 02:11:09;;;;;;;7.43;6.57;;;;;;;;;;5058193;28;20561;-82
2023/12/14 02:13:38;;;;;;;8.15;7.07;;;;;;;;;;5057982;28;20200;-82
2023/12/14 02:16:07;;;;;;;6.57;5.88;;;;;;;;;;5057776;28;20238;-82
2023/12/14 02:18:34;;;;;;;8.60;7.70;;;;;;;;;;5058289;28;20265;-83
2023/12/14 02:21:01;;;;;;;9.40;7.63;;;;;;;;;;5051825;28;20200;-82
2023/12/14 02:23:30;;;;;;;8.20;7.10;;;;;;;;;;5057513;28;20225;-82
2023/12/14 02:25:58;;;;;;;7.18;6.47;;;;;;;;;;5057099;28;20748;-83
2023/12/14 02:28:25;;;;;;;7.15;6.45;;;;;;;;;;5057077;28;20347;-82
2023/12/14 02:30:53;;;;;;;9.00;7.25;;;;;;;;;;5057984;28;20193;-83
2023/12/14 02:33:20;;;;;;;11.13;7.43;;;;;;;;;;5057508;28;20208;-82
2023/12/14 02:35:48;;;;;;;7.90;6.60;;;;;;;;;;5056302;28;20685;-83
2023/12/14 02:38:15;;;;;;;6.43;5.82;;;;;;;;;;5057266;28;20304;-82
2023/12/14 02:40:44;;;;;;;6.88;5.97;;;;;;;;;;5057067;28;20650;-82
2023/12/14 02:43:11;;;;;;;6.80;5.35;;;;;;;;;;5057897;28;20641;-81
2023/12/14 02:45:39;;;;;;;6.93;5.13;;;;;;;;;;5057258;28;20288;-83
2023/12/14 02:48:06;;;;;;;6.03;5.53;;;;;;;;;;5057463;28;20297;-83
2023/12/14 02:50:34;;;;;;;5.13;4.63;;;;;;;;;;5057235;28;20208;-82
2023/12/14 02:53:01;;;;;;;4.90;4.50;;;;;;;;;;5057524;28;20216;-83
2023/12/14 02:55:29;;;;;;;5.15;4.75;;;;;;;;;;5056173;28;20273;-82
2023/12/14 02:57:58;;;;;;;4.85;4.45;;;;;;;;;;5057487;28;20222;-83
2023/12/14 03:00:25;;;;;;;4.20;3.80;;;;;;;;;;5056724;28;20211;-82
2023/12/14 03:02:53;;;;;;;4.63;4.20;;;;;;;;;;5057187;28;20205;-83
2023/12/14 03:05:20;;;;;;;4.35;4.05;;;;;;;;;;5056892;28;20217;-82
2023/12/14 03:07:48;;;;;;;4.38;4.00;;;;;;;;;;5056326;28;20244;-81
2023/12/14 03:10:15;;;;;;;3.40;3.13;;;;;;;;;;5056554;28;20791;-82
2023/12/14 03:12:42;;;;;;;3.63;3.33;;;;;;;;;;5056839;28;20641;-82
2023/12/14 03:15:12;;;;;;;4.88;4.10;;;;;;;;;;5057524;28;20201;-81
2023/12/14 03:17:39;;;;;;;4.45;3.55;;;;;;;;;;5056160;28;20234;-82
2023/12/14 03:20:08;;;;;;;3.50;3.20;;;;;;;;;;5057236;28;20216;-82
2023/12/14 03:22:36;;;;;;;3.28;3.08;;;;;;;;;;5057442;28;20277;-81
2023/12/14 03:25:03;;;;;;;3.90;3.53;;;;;;;;;;5056802;28;20232;-82
2023/12/14 03:27:31;;;;;;;3.83;3.53;;;;;;;;;;5056760;28;20312;-82
2023/12/14 03:29:58;;;;;;;4.53;4.13;;;;;;;;;;5057026;28;20733;-82
2023/12/14 03:32:27;;;;;;;3.10;2.90;;;;;;;;;;5057335;28;20205;-82
2023/12/14 03:34:54;;;;;;;3.10;2.90;;;;;;;;;;5057562;28;20582;-82
2023/12/14 03:37:22;;;;;;;2.97;2.78;;;;;;;;;;5056514;28;20230;-81
2023/12/14 03:39:49;;;;;;;2.60;2.40;;;;;;;;;;5056965;28;20696;-83
2023/12/14 03:42:16;;;;;;;2.78;2.58;;;;;;;;;;5056726;28;20684;-82
2023/12/14 03:44:44;;;;;;;3.97;2.80;;;;;;;;;;5056414;28;20221;-83
2023/12/14 03:47:11;;;;;;;2.78;2.58;;;;;;;;;;5056162;28;20610;-82
2023/12/14 03:49:40;;;;;;;2.05;1.85;;;;;;;;;;5061310;28;20268;-82
2023/12/14 03:52:09;;;;;;;2.50;2.30;;;;;;;;;;5061028;28;20212;-83
2023/12/14 03:54:36;;;;;;;2.10;2.00;;;;;;;;;;5060596;28;20206;-81
2023/12/14 03:57:04;;;;;;;2.22;2.03;;;;;;;;;;5060594;28;20225;-82
2023/12/14 03:59:32;;;;;;;2.50;2.30;;;;;;;;;;5060605;28;20288;-82
2023/12/14 04:01:59;;;;;;;2.30;2.20;;;;;;;;;;5060696;28;20591;-82
2023/12/14 04:04:27;;;;;;;2.22;2.03;;;;;;;;;;5060397;28;20678;-82
2023/12/14 04:06:55;;;;;;;2.10;2.00;;;;;;;;;;5059995;28;20308;-82
2023/12/14 04:09:23;;;;;;;2.67;2.47;;;;;;;;;;5061061;28;20216;-82
2023/12/14 04:11:50;;;;;;;2.45;2.30;;;;;;;;;;5058705;28;20212;-82
2023/12/14 04:14:18;;;;;;;2.13;1.98;;;;;;;;;;5060622;28;20229;-82
2023/12/14 04:16:45;;;;;;;2.10;2.00;;;;;;;;;;5060107;28;20799;-83
2023/12/14 04:19:13;;;;;;;2.35;2.15;;;;;;;;;;5060748;28;20214;-82
2023/12/14 04:21:40;;;;;;;2.35;2.20;;;;;;;;;;5060125;28;20221;-82
2023/12/14 04:24:12;;;;;;;3.15;2.47;;;;;;;;;;5060341;28;20736;-82
2023/12/14 04:26:39;;;;;;;2.97;2.78;;;;;;;;;;5059716;28;20248;-81
2023/12/14 04:29:07;;;;;;;2.53;2.42;;;;;;;;;;5060276;28;20744;-82
2023/12/14 04:31:36;;;;;;;2.83;2.63;;;;;;;;;;5060040;28;20210;-82
2023/12/14 04:34:04;;;;;;;4.35;3.95;;;;;;;;;;5060572;28;20217;-82
2023/12/14 04:36:31;;;;;;;3.47;3.17;;;;;;;;;;5059886;28;20281;-82
2023/12/14 04:38:58;;;;;;;3.67;3.38;;;;;;;;;;5060567;28;20205;-81
2023/12/14 04:41:27;;;;;;;3.92;3.63;;;;;;;;;;5060104;28;20288;-82
2023/12/14 04:43:55;;;;;;;4.40;4.10;;;;;;;;;;5059909;28;20211;-82
2023/12/14 04:46:22;;;;;;;4.90;4.50;;;;;;;;;;5054227;28;20240;-82
2023/12/14 04:48:49;;;;;;;3.67;3.35;;;;;;;;;;5059328;28;20198;-81
2023/12/14 04:51:17;;;;;;;4.20;3.80;;;;;;;;;;5059851;28;20266;-82
2023/12/14 04:53:44;;;;;;;3.58;3.28;;;;;;;;;;5060416;28;20283;-81
2023/12/14 04:56:12;;;;;;;4.10;3.55;;;;;;;;;;5059156;28;20222;-81
2023/12/14 04:58:42;;;;;;;3.28;3.08;;;;;;;;;;5059319;28;21545;-81
2023/12/14 05:01:09;;;;;;;4.18;3.88;;;;;;;;;;5054741;28;20205;-81
2023/12/14 05:03:37;;;;;;;4.00;3.70;;;;;;;;;;5060433;28;20202;-83
2023/12/14 05:06:05;;;;;;;4.03;3.70;;;;;;;;;;5059195;28;20221;-82
2023/12/14 05:08:32;;;;;;;4.10;3.80;;;;;;;;;;5059081;28;20585;-82
2023/12/14 05:11:00;;;;;;;4.93;4.53;;;;;;;;;;5059200;28;20210;-80
2023/12/14 05:13:27;;;;;;;5.07;4.47;;;;;;;;;;5058982;28;20233;-82
2023/12/14 05:15:57;;;;;;;4.57;4.20;;;;;;;;;;5058072;28;20210;-82
2023/12/14 05:18:25;;;;;;;5.78;5.28;;;;;;;;;;5059777;28;20206;-81
2023/12/14 05:20:52;;;;;;;5.70;5.15;;;;;;;;;;5059255;28;20194;-82
2023/12/14 05:23:19;;;;;;;5.65;5.15;;;;;;;;;;5058725;28;20204;-81
2023/12/14 05:25:47;;;;;;;5.07;4.63;;;;;;;;;;5058489;28;20227;-82
2023/12/14 05:28:14;;;;;;;5.85;5.35;;;;;;;;;;5059292;28;20329;-82
2023/12/14 05:30:42;;;;;;;5.03;4.20;;;;;;;;;;5058722;28;20284;-83
2023/12/14 05:33:11;;;;;;;5.07;4.68;;;;;;;;;;5059058;28;20716;-81
2023/12/14 05:35:38;;;;;;;4.57;4.07;;;;;;;;;;5058503;28;20208;-82
2023/12/14 05:38:06;;;;;;;5.18;4.68;;;;;;;;;;5059133;28;20241;-82
2023/12/14 05:40:33;;;;;;;3.95;3.63;;;;;;;;;;5058462;28;20200;-82
2023/12/14 05:43:01;;;;;;;4.05;3.15;;;;;;;;;;5059013;28;20232;-82
2023/12/14 05:45:28;;;;;;;3.38;3.08;;;;;;;;;;5058169;28;20198;-82
2023/12/14 05:47:55;;;;;;;3.53;3.22;;;;;;;;;;5059444;28;20217;-82
2023/12/14 05:50:25;;;;;;;2.75;2.55;;;;;;;;;;5058993;28;20194;-82
2023/12/14 05:52:52;;;;;;;3.53;3.22;;;;;;;;;;5057235;28;20209;-82
2023/12/14 05:55:21;;;;;;;3.25;2.95;;;;;;;;;;5058633;28;20201;-81
2023/12/14 05:57:49;;;;;;;3.28;2.97;;;;;;;;;;5059050;28;20237;-81
2023/12/14 06:00:17;;;;;;;3.55;3.25;;;;;;;;;;5058814;28;20233;-81
2023/12/14 06:02:44;;;;;;;3.00;2.78;;;;;;;;;;5058797;28;20229;-82
2023/12/14 06:05:13;;;;;;;3.70;3.40;;;;;;;;;;5058463;28;20194;-82
2023/12/14 06:07:42;;;;;;;3.30;3.10;;;;;;;;;;5058625;28;20292;-82
2023/12/14 06:10:10;;;;;;;3.20;3.00;;;;;;;;;;5054206;28;20713;-82
2023/12/14 06:12:38;;;;;;;3.13;2.92;;;;;;;;;;5058613;28;20204;-82
2023/12/14 06:15:07;;;;;;;4.03;3.17;;;;;;;;;;5058016;28;20197;-82
2023/12/14 06:17:37;;;;;;;3.80;3.40;;;;;;;;;;5056505;28;20300;-82
2023/12/14 06:20:06;;;;;;;3.63;3.33;;;;;;;;;;5058602;28;20220;-82
2023/12/14 06:22:33;;;;;;;3.53;3.22;;;;;;;;;;5058254;28;20204;-81
2023/12/14 06:25:03;;;;;;;3.35;2.95;;;;;;;;;;5058573;28;20205;-82
2023/12/14 06:27:30;;;;;;;3.08;2.83;;;;;;;;;;5057774;28;20233;-81
2023/12/14 06:29:58;;;;;;;3.20;3.00;;;;;;;;;;5058337;28;20205;-82
2023/12/14 06:32:25;;;;;;;2.50;2.40;;;;;;;;;;5058616;28;20204;-81
2023/12/14 06:34:53;;;;;;;2.50;2.30;;;;;;;;;;5058370;28;20204;-82
2023/12/14 06:37:20;;;;;;;2.60;2.40;;;;;;;;;;5059055;28;20220;-82
2023/12/14 06:39:48;;;;;;;2.72;2.53;;;;;;;;;;5058480;28;20261;-82
2023/12/14 06:42:17;;;;;;;2.85;2.65;;;;;;;;;;5058839;28;20225;-83
2023/12/14 06:44:44;;;;;;;2.95;2.75;;;;;;;;;;5058302;28;20772;-81
2023/12/14 06:47:13;;;;;;;3.35;3.15;;;;;;;;;;5059492;28;20217;-81
2023/12/14 06:49:41;;;;;;;2.53;2.33;;;;;;;;;;5059333;28;20595;-82
2023/12/14 06:52:09;;;;;;;2.90;2.70;;;;;;;;;;5053342;28;20208;-82
2023/12/14 06:54:56;;;;;;;2.60;2.40;;;;;;;;;;5059958;28;20209;-82
2023/12/14 06:57:30;;;;;;;3.17;2.88;;;;;;;;;;5055558;28;20217;-83
2023/12/14 07:00:02;;;;;;;2.80;2.60;;;;;;;;;;5049128;28;20269;-83
2023/12/14 07:02:29;;;;;;;2.83;2.60;;;;;;;;;;5057097;28;20216;-82
2023/12/14 07:04:56;;;;;;;3.28;3.03;;;;;;;;;;5055787;28;20205;-81
2023/12/14 07:07:24;;;;;;;3.00;2.80;;;;;;;;;;5055557;28;20236;-83
2023/12/14 07:09:52;;;;;;;3.30;3.10;;;;;;;;;;5055880;28;20236;-83
2023/12/14 07:12:19;;;;;;;2.88;2.63;;;;;;;;;;5055949;28;20202;-83
2023/12/14 07:14:48;;;;;;;2.80;2.60;;;;;;;;;;5056373;28;20198;-83
2023/12/14 07:17:15;;;;;;;5.72;2.88;;;;;;;;;;5056220;28;20312;-82
2023/12/14 07:19:43;;;;;;;2.95;2.75;;;;;;;;;;5056428;28;20208;-82
2023/12/14 07:22:10;;;;;;;3.95;3.65;;;;;;;;;;5057077;28;20244;-83
2023/12/14 07:24:37;;;;;;;3.58;3.28;;;;;;;;;;5060872;28;20644;-84
2023/12/14 07:27:05;;;;;;;3.80;3.42;;;;;;;;;;5059739;28;20231;-82
2023/12/14 07:29:33;;;;;;;9.35;4.28;;;;;;;;;;5060218;28;20288;-83
2023/12/14 07:32:02;;;;;;;4.85;4.35;;;;;;;;;;5060108;28;20198;-81
2023/12/14 07:34:29;;;;;;;4.20;3.90;;;;;;;;;;5059804;28;20665;-81
2023/12/14 07:36:56;;;;;;;5.25;4.75;;;;;;;;;;5059545;28;20316;-83
2023/12/14 07:39:24;;;;;;;7.68;5.68;;;;;;;;;;5060417;28;20552;-81
2023/12/14 07:41:52;;;;;;;5.55;5.05;;;;;;;;;;5060908;28;20207;-83
2023/12/14 07:44:20;;;;;;;5.10;4.60;;;;;;;;;;5060150;28;20223;-82
2023/12/14 07:46:47;;;;;;;5.30;4.80;;;;;;;;;;5059872;28;20237;-83
2023/12/14 07:49:20;;;;;;;5.13;4.68;;;;;;;;;;5059972;28;20252;-83
2023/12/14 07:51:47;;;;;;;5.03;4.57;;;;;;;;;;5060012;28;20269;-83
2023/12/14 07:54:15;;;;;;;6.35;5.75;;;;;;;;;;5060184;28;20205;-83
2023/12/14 07:56:43;;;;;;;6.60;5.28;;;;;;;;;;5060709;28;20226;-83
2023/12/14 07:59:10;;;;;;;5.03;4.57;;;;;;;;;;5059422;28;20225;-82
2023/12/14 08:01:38;;;;;;;5.20;4.70;;;;;;;;;;5059400;28;20722;-83
2023/12/14 08:04:06;;;;;;;5.18;4.75;;;;;;;;;;5059777;28;20672;-83
2023/12/14 08:06:35;;;;;;;5.00;4.60;;;;;;;;;;5058943;28;20221;-84
2023/12/14 08:09:02;;;;;;;4.75;4.07;;;;;;;;;;5059984;28;20698;-83
2023/12/14 08:11:30;;;;;;;5.85;5.35;;;;;;;;;;5060004;28;20202;-84
2023/12/14 08:13:58;;;;;;;21.55;6.70;;;;;;;;;;5059689;28;20288;-84
2023/12/14 08:16:25;;;;;;;9.50;5.57;;;;;;;;;;5059561;28;20396;-85
2023/12/14 08:18:53;;;;;;;20.67;6.07;;;;;;;;;;5059526;28;20729;-81
2023/12/14 08:21:21;;;;;;;6.70;5.65;;;;;;;;;;5059145;28;20300;-84
2023/12/14 08:23:50;;;;;;;8.15;5.22;;;;;;;;;;5059814;28;20229;-83
2023/12/14 08:26:17;;;;;;;7.32;4.40;;;;;;;;;;5059788;28;20221;-83
2023/12/14 08:28:45;;;;;;;5.03;4.15;;;;;;;;;;5059700;28;20588;-82
2023/12/14 08:31:12;;;;;;;6.28;5.18;;;;;;;;;;5059393;28;20198;-82
2023/12/14 08:33:42;;;;;;;5.35;4.78;;;;;;;;;;5058551;28;20198;-84
2023/12/14 08:36:10;;;;;;;5.13;4.43;;;;;;;;;;5059189;28;20202;-83
2023/12/14 08:38:38;;;;;;;4.07;3.60;;;;;;;;;;5059813;28;20280;-82
2023/12/14 08:41:07;;;;;;;5.50;4.13;;;;;;;;;;5059743;28;20714;-83
2023/12/14 08:43:34;;;;;;;4.88;3.80;;;;;;;;;;5059892;28;20446;-82
2023/12/14 08:46:02;;;;;;;5.55;5.05;;;;;;;;;;5059054;28;20288;-83
2023/12/14 08:48:29;;;;;;;5.53;4.25;;;;;;;;;;5058726;28;20248;-84
2023/12/14 08:50:57;;;;;;;4.57;4.15;;;;;;;;;;5058797;28;20645;-81
2023/12/14 08:53:24;;;;;;;4.50;4.10;;;;;;;;;;5058653;28;20208;-83
2023/12/14 08:55:52;;;;;;;4.00;3.60;;;;;;;;;;5058872;28;20714;-81
2023/12/14 08:58:20;;;;;;;3.75;3.45;;;;;;;;;;5058600;28;20292;-81
2023/12/14 09:00:52;;;;;;;4.63;4.22;;;;;;;;;;5058214;28;20263;-83
2023/12/14 09:03:20;;;;;;;4.35;3.95;;;;;;;;;;5058764;28;20194;-83
2023/12/14 09:05:48;;;;;;;5.50;4.80;;;;;;;;;;5058128;28;20204;-84
2023/12/14 09:08:15;;;;;;;4.80;4.30;;;;;;;;;;5058780;28;20257;-83
2023/12/14 09:10:43;;;;;;;4.50;4.10;;;;;;;;;;5058839;28;20247;-83
2023/12/14 09:13:10;;;;;;;5.47;4.97;;;;;;;;;;5058720;28;20201;-83
2023/12/14 09:15:39;;;;;;;5.10;4.70;;;;;;;;;;5058376;28;20210;-82
2023/12/14 09:18:07;;;;;;;4.75;4.32;;;;;;;;;;5058136;28;20226;-84
2023/12/14 09:20:37;;;;;;;4.60;4.20;;;;;;;;;;5058654;28;20680;-84
2023/12/14 09:23:04;;;;;;;4.57;4.18;;;;;;;;;;5058750;28;20568;-83
2023/12/14 09:25:33;;;;;;;7.35;4.80;;;;;;;;;;5058121;28;20209;-82
2023/12/14 09:28:00;;;;;;;5.78;4.32;;;;;;;;;;5058966;28;20225;-84
2023/12/14 09:30:28;;;;;;;5.18;4.68;;;;;;;;;;5057752;28;20204;-82
2023/12/14 09:32:56;;;;;;;5.95;5.35;;;;;;;;;;5058498;28;20202;-83
2023/12/14 09:35:24;;;;;;;5.55;4.80;;;;;;;;;;5057829;28;20240;-84
2023/12/14 09:37:52;;;;;;;5.43;4.72;;;;;;;;;;5066983;28;20659;-82
2023/12/14 09:40:19;;;;;;;6.35;4.82;;;;;;;;;;5061765;28;20206;-83
2023/12/14 09:42:47;;;;;;;6.00;5.40;;;;;;;;;;5057176;28;20574;-81
2023/12/14 09:45:14;;;;;;;8.23;5.85;;;;;;;;;;5057366;28;20288;-82
2023/12/14 09:47:43;;;;;;;5.88;5.38;;;;;;;;;;5057157;28;20221;-83
2023/12/14 09:50:14;;;;;;;5.90;5.20;;;;;;;;;;5057716;28;20229;-82
2023/12/14 09:52:45;;;;;;;6.32;5.22;;;;;;;;;;5057303;28;20193;-86
2023/12/14 09:55:13;;;;;;;6.55;5.85;;;;;;;;;;5057700;28;20186;-81
2023/12/14 09:57:40;;;;;;;9.23;7.82;;;;;;;;;;5057858;28;20712;-82
2023/12/14 10:00:13;;;;;;;6.32;5.68;;;;;;;;;;5057338;28;20225;-83
2023/12/14 10:02:41;;;;;;;7.80;6.82;;;;;;;;;;5057616;28;20220;-84
2023/12/14 10:05:12;;;;;;;9.43;7.95;;;;;;;;;;5058010;28;20693;-82
2023/12/14 10:07:44;;;;;;;7.32;6.43;;;;;;;;;;5057765;28;20591;-83
2023/12/14 10:10:13;;;;;;;7.85;6.88;;;;;;;;;;5057287;28;20684;-83
2023/12/14 10:12:53;;;;;;;7.70;7.00;;;;;;;;;;5057686;28;20275;-84
2023/12/14 10:15:23;;;;;;;7.85;7.15;;;;;;;;;;5057226;28;20190;-81
2023/12/14 10:17:54;;;;;;;7.10;6.35;;;;;;;;;;5055894;28;20226;-83
2023/12/14 10:20:23;;;;;;;7.68;6.82;;;;;;;;;;5058275;28;20189;-86
2023/12/14 10:22:51;;;;;;;7.30;6.60;;;;;;;;;;5057574;28;20268;-83
2023/12/14 10:25:20;;;;;;;7.60;6.90;;;;;;;;;;5057922;28;20202;-85
2023/12/14 10:27:48;;;;;;;8.35;6.57;;;;;;;;;;5055320;28;20225;-82
2023/12/14 10:30:16;;;;;;;9.63;7.63;;;;;;;;;;5056294;28;20229;-81
2023/12/14 10:32:44;;;;;;;8.07;7.22;;;;;;;;;;5056508;28;20232;-82
2023/12/14 10:35:12;;;;;;;7.35;6.47;;;;;;;;;;5055408;28;20201;-81
2023/12/14 10:37:41;;;;;;;11.00;8.95;;;;;;;;;;5057369;28;20221;-83
2023/12/14 10:40:11;;;;;;;7.05;6.35;;;;;;;;;;5058307;28;20649;-83
2023/12/14 10:42:38;;;;;;;11.05;9.68;;;;;;;;;;5058016;28;20204;-83
2023/12/14 10:45:08;;;;;;;12.57;9.48;;;;;;;;;;5057850;28;20201;-83
2023/12/14 10:47:36;;;;;;;7.25;6.55;;;;;;;;;;5057396;28;20289;-83
2023/12/14 10:50:04;;;;;;;8.77;7.97;;;;;;;;;;5056255;28;20225;-83
2023/12/14 10:52:35;;;;;;;7.78;6.40;;;;;;;;;;5056788;28;20210;-81
2023/12/14 10:55:08;;;;;;;7.38;6.63;;;;;;;;;;5056734;28;20654;-81
2023/12/14 10:57:36;;;;;;;7.68;6.97;;;;;;;;;;5056246;28;20229;-81
2023/12/14 11:00:07;;;;;;;6.28;5.50;;;;;;;;;;5056977;28;20300;-81
2023/12/14 11:02:42;;;;;;;6.30;5.70;;;;;;;;;;5056797;28;20190;-81
2023/12/14 11:05:11;;;;;;;6.45;5.85;;;;;;;;;;5056415;28;20191;-81
2023/12/14 11:07:52;;;;;;;6.38;5.78;;;;;;;;;;5055626;28;20226;-81
2023/12/14 11:10:28;;;;;;;6.32;5.72;;;;;;;;;;5055899;28;20244;-81
2023/12/14 11:13:03;;;;;;;8.85;7.40;;;;;;;;;;5056663;28;20566;-80
2023/12/14 11:15:33;;;;;;;6.75;6.05;;;;;;;;;;5056519;28;20205;-82
2023/12/14 11:18:27;;;;;;;6.53;5.93;;;;;;;;;;5056051;28;20248;-80
2023/12/14 11:21:00;;;;;;;7.72;6.85;;;;;;;;;;5056278;28;20219;-82
2023/12/14 11:23:34;;;;;;;7.68;6.97;;;;;;;;;;5056541;28;20192;-80
2023/12/14 11:26:05;;;;;;;8.35;7.55;;;;;;;;;;5056022;28;20185;-81
2023/12/14 11:28:34;;;;;;;7.45;6.75;;;;;;;;;;5055991;28;20277;-81
2023/12/14 11:31:06;;;;;;;6.68;6.07;;;;;;;;;;5056077;28;20225;-82
2023/12/14 11:33:34;;;;;;;7.53;6.93;;;;;;;;;;5056076;28;20190;-81
2023/12/14 11:36:04;;;;;;;8.32;7.45;;;;;;;;;;5056591;28;20205;-82
2023/12/14 11:38:32;;;;;;;8.00;7.20;;;;;;;;;;5056868;28;20665;-83
2023/12/14 11:41:00;;;;;;;7.93;6.90;;;;;;;;;;5055931;28;20204;-81
2023/12/14 11:43:29;;;;;;;7.97;7.00;;;;;;;;;;5056024;28;20205;-83
2023/12/14 11:45:57;;;;;;;7.85;7.07;;;;;;;;;;5056297;28;20205;-83
2023/12/14 11:48:24;;;;;;;7.28;6.57;;;;;;;;;;5055481;28;20197;-81
2023/12/14 11:50:52;;;;;;;7.32;6.63;;;;;;;;;;5055624;28;20222;-82
2023/12/14 11:53:20;;;;;;;6.20;5.60;;;;;;;;;;5056000;28;20289;-82
2023/12/14 11:55:47;;;;;;;8.65;7.88;;;;;;;;;;5056107;28;20233;-81
2023/12/14 11:58:16;;;;;;;8.85;8.00;;;;;;;;;;5055794;28;20228;-82
2023/12/14 12:00:47;;;;;;;7.50;6.78;;;;;;;;;;5055817;28;20686;-81
2023/12/14 12:03:17;;;;;;;8.05;7.25;;;;;;;;;;5056394;28;20251;-80
2023/12/14 12:05:46;;;;;;;7.28;6.57;;;;;;;;;;5056298;28;20252;-82
2023/12/14 12:08:16;;;;;;;7.30;6.55;;;;;;;;;;5055670;28;20248;-82
2023/12/14 12:10:44;;;;;;;10.07;8.18;;;;;;;;;;5058317;28;20221;-82
2023/12/14 12:13:15;;;;;;;7.18;6.50;;;;;;;;;;5060172;28;20197;-83
2023/12/14 12:15:44;;;;;;;8.73;7.82;;;;;;;;;;5060230;28;20243;-82
2023/12/14 12:18:14;;;;;;;8.77;7.90;;;;;;;;;;5059639;28;20229;-83
2023/12/14 12:20:41;;;;;;;9.80;8.88;;;;;;;;;;5059669;28;20544;-83
2023/12/14 12:23:09;;;;;;;8.55;7.05;;;;;;;;;;5060578;28;20631;-82
2023/12/14 12:25:37;;;;;;;7.53;6.82;;;;;;;;;;5060519;28;20211;-83
2023/12/14 12:28:05;;;;;;;7.82;6.93;;;;;;;;;;5059227;28;20222;-82
2023/12/14 12:30:33;;;;;;;7.32;6.63;;;;;;;;;;5059622;28;20693;-82
2023/12/14 12:33:01;;;;;;;7.10;6.38;;;;;;;;;;5059508;28;20288;-83
2023/12/14 12:35:30;;;;;;;7.80;7.00;;;;;;;;;;5059289;28;20197;-81
2023/12/14 12:37:57;;;;;;;7.82;7.05;;;;;;;;;;5059303;28;20222;-81
2023/12/14 12:40:26;;;;;;;7.85;6.97;;;;;;;;;;5059550;28;20566;-82
2023/12/14 12:42:54;;;;;;;5.97;5.38;;;;;;;;;;5059656;28;20202;-83
2023/12/14 12:45:22;;;;;;;7.90;7.10;;;;;;;;;;5059152;28;20202;-82
2023/12/14 12:47:49;;;;;;;6.90;6.30;;;;;;;;;;5059151;28;20785;-81
2023/12/14 12:50:18;;;;;;;7.45;6.63;;;;;;;;;;5058540;28;20222;-82
2023/12/14 12:52:48;;;;;;;6.55;5.95;;;;;;;;;;5058619;28;20697;-82
2023/12/14 12:55:16;;;;;;;7.65;6.68;;;;;;;;;;5059771;28;20643;-81
2023/12/14 12:57:43;;;;;;;7.60;6.90;;;;;;;;;;5059846;28;20670;-81
2023/12/14 13:00:12;;;;;;;6.53;5.88;;;;;;;;;;5059627;28;20208;-80
2023/12/14 13:02:40;;;;;;;6.18;5.57;;;;;;;;;;5059387;28;20205;-81
2023/12/14 13:05:08;;;;;;;6.60;6.00;;;;;;;;;;5059907;28;20287;-80
2023/12/14 13:07:37;;;;;;;7.80;7.03;;;;;;;;;;5059024;28;20263;-79
2023/12/14 13:10:07;;;;;;;9.73;7.72;;;;;;;;;;5058929;28;20194;-79
2023/12/14 13:12:34;;;;;;;7.85;7.05;;;;;;;;;;5059182;28;20224;-81
2023/12/14 13:15:02;;;;;;;9.25;7.75;;;;;;;;;;5058754;28;20289;-81
2023/12/14 13:17:29;;;;;;;8.32;7.47;;;;;;;;;;5058552;28;20256;-82
2023/12/14 13:19:57;;;;;;;7.13;6.45;;;;;;;;;;5059571;28;20216;-81
2023/12/14 13:22:24;;;;;;;7.90;6.10;;;;;;;;;;5058736;28;20198;-81
2023/12/14 13:24:54;;;;;;;7.85;7.05;;;;;;;;;;5058147;28;20666;-80
2023/12/14 13:27:23;;;;;;;7.85;6.85;;;;;;;;;;5058342;28;20221;-82
2023/12/14 13:29:51;;;;;;;8.48;7.50;;;;;;;;;;5058157;28;20209;-82
2023/12/14 13:32:18;;;;;;;7.22;6.45;;;;;;;;;;5058652;28;20225;-81
2023/12/14 13:34:46;;;;;;;8.75;7.90;;;;;;;;;;5058766;28;20288;-82
2023/12/14 13:37:13;;;;;;;7.10;6.40;;;;;;;;;;5057896;28;20249;-81
2023/12/14 13:39:42;;;;;;;8.57;7.68;;;;;;;;;;5058168;28;20201;-85
2023/12/14 13:42:10;;;;;;;8.18;7.32;;;;;;;;;;5058703;28;20864;-84
2023/12/14 13:44:38;;;;;;;11.68;8.50;;;;;;;;;;5058421;28;20652;-81
2023/12/14 13:47:06;;;;;;;9.88;7.97;;;;;;;;;;5057037;28;20230;-80
2023/12/14 13:49:35;;;;;;;10.70;9.57;;;;;;;;;;5058188;28;20654;-83
2023/12/14 13:52:02;;;;;;;8.43;7.63;;;;;;;;;;5057419;28;20244;-83
2023/12/14 13:54:30;;;;;;;15.20;13.60;;;;;;;;;;5057546;28;20283;-82
2023/12/14 13:56:57;;;;;;;10.98;9.90;;;;;;;;;;5057126;28;20312;-82
2023/12/14 13:59:26;;;;;;;11.02;9.43;;;;;;;;;;5057099;28;20201;-83
2023/12/14 14:01:53;;;;;;;15.85;14.15;;;;;;;;;;5056991;28;20623;-82
2023/12/14 14:04:21;;;;;;;12.52;10.77;;;;;;;;;;5056811;28;20701;-84
2023/12/14 14:06:48;;;;;;;15.25;12.65;;;;;;;;;;5056679;28;20233;-83
2023/12/14 14:09:16;;;;;;;25.48;21.63;;;;;;;;;;5057250;28;20231;-80
2023/12/14 14:11:47;;;;;;;13.20;11.82;;;;;;;;;;5056430;28;20221;-84
2023/12/14 14:14:14;;;;;;;9.90;8.60;;;;;;;;;;5056911;28;20236;-83
2023/12/14 14:16:43;;;;;;;9.38;8.38;;;;;;;;;;5056372;28;20229;-82
2023/12/14 14:19:10;;;;;;;11.05;9.93;;;;;;;;;;5056842;28;20658;-82
2023/12/14 14:21:38;;;;;;;13.45;12.02;;;;;;;;;;5056842;28;20197;-84
2023/12/14 14:24:06;;;;;;;23.98;18.70;;;;;;;;;;5056320;28;20197;-82
2023/12/14 14:26:34;;;;;;;19.67;16.20;;;;;;;;;;5062446;28;20210;-83
2023/12/14 14:29:02;;;;;;;12.73;11.30;;;;;;;;;;5076400;28;20683;-82
2023/12/14 14:31:32;;;;;;;12.20;10.27;;;;;;;;;;5075300;28;20593;-84
2023/12/14 14:34:01;;;;;;;11.52;10.07;;;;;;;;;;5076575;28;20231;-84
2023/12/14 14:36:28;;;;;;;14.52;12.50;;;;;;;;;;5076198;28;20311;-83
2023/12/14 14:38:56;;;;;;;8.88;7.97;;;;;;;;;;5076340;28;20657;-84
2023/12/14 14:41:24;;;;;;;8.77;7.95;;;;;;;;;;5076912;28;20197;-83
2023/12/14 14:43:51;;;;;;;8.30;7.47;;;;;;;;;;5076611;28;20692;-84
2023/12/14 14:46:19;;;;;;;8.18;7.30;;;;;;;;;;5075599;28;20231;-84